Terminal Aerodrome Forecast
Issued by NWS Pendleton, OR

Home | Current Version | Previous Version | Text Only | Print | Product List | Glossary On
Versions: 1 2 3 4 5 6 7 8 9 10 11 12 13 14 15 16 17 18 19 20 21 22 23 24 25 26 27 28 29 30 31 32 33 34 35 36
000
FTUS46 KPDT 212335
TAFPDT
TAF
KPDT 212335Z 2200/2224 27008KT P6SM FEW250
     FM220400 15007KT P6SM SKC
     FM221700 26008KT P6SM FEW120 SCT200
     FM222000 25012KT P6SM SCT070 BKN100
      TEMPO 2222/2224 -RA BKN050 BKN070=

USA.gov is the U.S. government's official web portal to all federal, state and local government web resources and services.